Time;durP1;ratioP1;P1;durP2;ratioP2;P2;SDS_P1;SDS_P2;PMS_P1;PMS_P2;Temp;Humidity;BMP_temperature;BMP_pressure;BME280_temperature;BME280_humidity;BME280_pressure;Samples;Min_cycle;Max_cycle;Signal;HPM_P1;HPM_P2
2022/07/20 00:01:05;;;;;;;19.13;9.18;;;26.00;58.40;;;;;;4801998;29;20125;-78
2022/07/20 00:03:31;;;;;;;10.90;8.40;;;25.90;58.40;;;;;;4814897;29;20486;-78
2022/07/20 00:05:58;;;;;;;9.60;8.60;;;25.90;58.50;;;;;;4814911;29;20086;-78
2022/07/20 00:11:20;;;;;;;10.45;8.70;;;25.80;58.70;;;;;;4817207;29;20030;-78
2022/07/20 00:13:48;;;;;;;9.40;8.18;;;25.80;58.80;;;;;;4815267;29;20073;-79
2022/07/20 00:16:14;;;;;;;10.07;8.48;;;25.80;58.80;;;;;;4815174;29;20077;-80
2022/07/20 00:18:40;;;;;;;9.30;8.40;;;25.70;58.90;;;;;;4815227;29;20497;-78
2022/07/20 00:21:06;;;;;;;9.35;8.25;;;25.70;59.10;;;;;;4800694;29;20292;-79
2022/07/20 00:23:31;;;;;;;8.70;7.82;;;25.70;59.10;;;;;;4817925;29;20038;-79
2022/07/20 00:25:57;;;;;;;11.45;8.90;;;25.70;59.70;;;;;;4817056;29;20497;-77
2022/07/20 00:28:23;;;;;;;8.70;7.90;;;25.70;59.20;;;;;;4801894;29;20121;-79
2022/07/20 00:30:49;;;;;;;9.65;7.55;;;25.60;59.30;;;;;;4820677;29;20038;-78
2022/07/20 00:33:15;;;;;;;11.15;8.68;;;25.60;59.30;;;;;;4820891;29;20046;-78
2022/07/20 00:35:41;;;;;;;9.82;8.20;;;25.50;59.30;;;;;;4815407;29;20430;-78
2022/07/20 00:38:07;;;;;;;8.40;7.45;;;25.50;59.50;;;;;;4815494;29;20517;-77
2022/07/20 00:40:33;;;;;;;10.98;8.00;;;25.40;59.50;;;;;;4799490;29;20450;-78
2022/07/20 00:42:58;;;;;;;10.63;7.20;;;25.40;59.60;;;;;;4815317;29;20045;-78
2022/07/20 00:45:24;;;;;;;8.65;6.70;;;25.30;59.70;;;;;;4814188;29;20107;-78
2022/07/20 00:47:51;;;;;;;8.73;7.45;;;25.30;59.80;;;;;;4816909;29;20019;-78
2022/07/20 00:50:17;;;;;;;8.35;7.55;;;25.20;59.80;;;;;;4800373;29;20111;-79
2022/07/20 00:52:44;;;;;;;9.43;7.22;;;25.20;59.90;;;;;;4817551;29;20071;-79
2022/07/20 00:55:10;;;;;;;8.98;7.22;;;25.20;60.00;;;;;;4818918;29;20284;-78
2022/07/20 00:57:35;;;;;;;9.25;6.70;;;25.10;60.00;;;;;;4798118;29;20041;-78
2022/07/20 01:00:04;;;;;;;9.55;6.80;;;25.10;60.10;;;;;;4817335;29;20132;-78
2022/07/20 01:02:30;;;;;;;7.90;6.95;;;25.00;60.10;;;;;;4817680;29;20038;-78
2022/07/20 01:04:56;;;;;;;8.38;6.88;;;25.00;60.20;;;;;;4816923;29;20042;-79
2022/07/20 01:07:22;;;;;;;7.65;6.53;;;25.00;60.20;;;;;;4817829;29;20030;-78
2022/07/20 01:09:48;;;;;;;9.18;7.32;;;25.00;60.30;;;;;;4815316;29;20500;-78
2022/07/20 01:12:14;;;;;;;8.93;7.15;;;24.90;60.20;;;;;;4813889;29;20345;-78
2022/07/20 01:14:40;;;;;;;7.43;6.68;;;24.90;60.30;;;;;;4815978;29;20268;-78
2022/07/20 01:17:06;;;;;;;10.73;7.13;;;24.90;60.40;;;;;;4817947;29;20393;-77
2022/07/20 01:19:31;;;;;;;9.57;6.38;;;24.80;60.30;;;;;;4814826;29;20141;-77
2022/07/20 01:21:57;;;;;;;7.80;6.75;;;24.70;60.20;;;;;;4818427;29;20079;-77
2022/07/20 01:24:23;;;;;;;7.60;6.53;;;24.70;60.30;;;;;;4796726;29;20035;-77
2022/07/20 01:26:49;;;;;;;9.38;6.63;;;24.70;60.40;;;;;;4814394;29;20029;-77
2022/07/20 01:29:15;;;;;;;9.52;6.13;;;24.60;60.30;;;;;;4797730;29;20523;-77
2022/07/20 01:31:41;;;;;;;7.43;6.68;;;24.60;60.40;;;;;;4816481;29;20038;-77
2022/07/20 01:34:07;;;;;;;7.15;6.45;;;24.60;60.40;;;;;;4814433;29;20057;-78
2022/07/20 01:36:33;;;;;;;7.15;6.15;;;24.60;60.40;;;;;;4812763;29;20043;-76
2022/07/20 01:38:59;;;;;;;9.40;6.60;;;24.60;60.50;;;;;;4814681;29;20065;-77
2022/07/20 01:41:25;;;;;;;6.38;5.80;;;24.50;60.40;;;;;;4809607;29;20089;-78
2022/07/20 01:43:51;;;;;;;10.05;6.75;;;24.50;60.50;;;;;;4816399;29;20580;-77
2022/07/20 01:46:17;;;;;;;8.52;6.30;;;24.50;60.50;;;;;;4815675;29;20402;-78
2022/07/20 01:48:43;;;;;;;7.07;5.70;;;24.50;60.50;;;;;;4813845;29;20435;-77
2022/07/20 01:51:09;;;;;;;8.90;6.18;;;24.40;60.30;;;;;;4814625;29;20066;-77
2022/07/20 01:53:35;;;;;;;6.28;5.35;;;24.50;60.50;;;;;;4814131;29;20034;-78
2022/07/20 01:56:01;;;;;;;8.40;6.28;;;24.40;60.40;;;;;;4797150;29;20034;-77
2022/07/20 01:58:27;;;;;;;7.47;6.13;;;24.40;60.40;;;;;;4813285;29;20064;-79
2022/07/20 02:00:53;;;;;;;7.50;6.10;;;24.40;60.40;;;;;;4797948;29;20043;-78
2022/07/20 02:03:19;;;;;;;7.53;5.95;;;24.40;60.40;;;;;;4814601;29;20034;-78
2022/07/20 02:05:45;;;;;;;7.30;5.90;;;24.40;60.50;;;;;;4813302;29;20466;-78
2022/07/20 02:08:11;;;;;;;7.85;5.60;;;24.40;60.50;;;;;;4813835;29;20030;-79
2022/07/20 02:10:38;;;;;;;5.82;5.18;;;24.40;60.50;;;;;;4813411;29;20493;-78
2022/07/20 02:13:03;;;;;;;6.57;5.43;;;24.40;60.50;;;;;;4814097;29;20034;-79
2022/07/20 02:18:14;;;;;;;7.75;6.10;;;24.40;60.50;;;;;;4813724;29;20029;-78
2022/07/20 02:20:41;;;;;;;6.13;5.50;;;24.30;60.30;;;;;;4813549;29;20041;-79
2022/07/20 02:23:09;;;;;;;6.45;5.22;;;24.30;60.40;;;;;;4813174;29;20060;-78
2022/07/20 02:25:37;;;;;;;5.60;4.82;;;24.30;60.50;;;;;;4813292;29;20147;-78
2022/07/20 02:28:07;;;;;;;5.93;5.50;;;24.30;60.50;;;;;;4813882;29;20191;-78
2022/07/20 02:30:33;;;;;;;6.57;5.57;;;24.20;60.30;;;;;;4814951;29;20044;-78
2022/07/20 02:33:01;;;;;;;7.10;5.75;;;24.20;60.40;;;;;;4814670;29;20046;-78
2022/07/20 02:35:27;;;;;;;6.53;5.53;;;24.20;60.50;;;;;;4813674;29;20490;-78
2022/07/20 02:37:53;;;;;;;8.05;5.63;;;24.20;60.50;;;;;;4812856;29;20046;-78
2022/07/20 02:40:19;;;;;;;6.85;5.47;;;24.10;60.90;;;;;;4812314;29;20037;-78
2022/07/20 02:42:45;;;;;;;8.25;5.93;;;24.10;60.40;;;;;;4814146;29;20034;-78
2022/07/20 02:45:11;;;;;;;7.22;5.35;;;24.00;60.30;;;;;;4816024;29;20438;-78
2022/07/20 02:47:45;;;;;;;9.27;5.72;;;24.00;60.40;;;;;;4813600;29;20381;-78
2022/07/20 02:50:11;;;;;;;5.78;5.13;;;23.90;60.30;;;;;;4814107;29;20042;-79
2022/07/20 02:52:38;;;;;;;7.78;5.72;;;23.90;60.40;;;;;;4816483;29;20089;-78
2022/07/20 02:55:06;;;;;;;8.57;5.78;;;23.90;60.40;;;;;;4815079;29;20566;-78
2022/07/20 02:57:32;;;;;;;9.15;5.60;;;23.90;60.50;;;;;;4815256;29;20033;-78
2022/07/20 02:59:58;;;;;;;6.57;5.40;;;23.80;60.40;;;;;;4816379;29;20203;-78
2022/07/20 03:02:23;;;;;;;6.45;5.70;;;23.80;60.40;;;;;;4816618;29;20027;-79
2022/07/20 03:04:49;;;;;;;5.90;5.40;;;23.80;60.50;;;;;;4816986;29;20034;-79
2022/07/20 03:07:16;;;;;;;9.13;6.53;;;23.70;60.40;;;;;;4801114;29;20506;-79
2022/07/20 03:09:42;;;;;;;6.03;5.50;;;23.70;60.40;;;;;;4816372;29;20086;-79
2022/07/20 03:12:09;;;;;;;7.63;6.43;;;23.60;60.30;;;;;;4816770;29;20129;-79
2022/07/20 03:14:35;;;;;;;6.82;5.63;;;23.60;60.40;;;;;;4816816;29;20042;-78
2022/07/20 03:17:00;;;;;;;5.65;5.15;;;23.60;60.50;;;;;;4800949;29;20074;-79
2022/07/20 03:19:26;;;;;;;8.35;6.60;;;23.60;60.50;;;;;;4817525;29;20489;-78
2022/07/20 03:21:52;;;;;;;6.63;4.90;;;23.50;60.40;;;;;;4814897;29;20597;-79
2022/07/20 03:24:18;;;;;;;6.63;5.68;;;23.50;60.50;;;;;;4816087;29;20094;-79
2022/07/20 03:26:44;;;;;;;7.90;5.45;;;23.40;60.40;;;;;;4816243;29;20489;-79
2022/07/20 03:29:10;;;;;;;7.07;6.05;;;23.40;60.40;;;;;;4817240;29;20038;-77
2022/07/20 03:31:36;;;;;;;6.10;5.60;;;23.40;60.50;;;;;;4816445;29;20070;-76
2022/07/20 03:34:02;;;;;;;5.97;5.35;;;23.30;60.30;;;;;;4815897;29;20054;-79
2022/07/20 03:36:28;;;;;;;6.53;5.18;;;23.30;60.50;;;;;;4816865;29;20050;-76
2022/07/20 03:38:54;;;;;;;7.30;5.70;;;23.30;60.50;;;;;;4816463;29;20082;-77
2022/07/20 03:41:20;;;;;;;7.28;5.90;;;23.20;60.50;;;;;;4799898;29;20030;-77
2022/07/20 03:43:46;;;;;;;6.95;5.80;;;23.10;60.40;;;;;;4817379;29;20481;-77
2022/07/20 03:46:15;;;;;;;9.43;6.07;;;23.10;60.40;;;;;;4816909;29;20038;-76
2022/07/20 03:48:40;;;;;;;6.65;5.47;;;23.10;60.60;;;;;;4816211;29;20081;-77
2022/07/20 03:51:06;;;;;;;7.45;6.20;;;23.10;60.60;;;;;;4816966;29;20899;-77
2022/07/20 03:53:32;;;;;;;6.38;5.57;;;23.10;60.70;;;;;;4816719;29;20042;-78
2022/07/20 03:55:58;;;;;;;7.18;6.43;;;23.00;60.50;;;;;;4815214;29;20046;-77
2022/07/20 03:58:24;;;;;;;7.40;6.07;;;23.00;60.60;;;;;;4816485;29;20038;-78
2022/07/20 04:00:50;;;;;;;7.10;6.40;;;22.90;60.50;;;;;;4816723;29;20374;-77
2022/07/20 04:03:16;;;;;;;7.45;5.45;;;22.90;60.50;;;;;;4816557;29;20035;-77
2022/07/20 04:05:41;;;;;;;7.85;6.15;;;22.90;60.60;;;;;;4816660;29;20117;-77
2022/07/20 04:08:08;;;;;;;6.72;5.50;;;22.90;60.70;;;;;;4816683;29;20042;-79
2022/07/20 04:10:35;;;;;;;8.27;6.43;;;22.80;60.50;;;;;;4816147;29;20022;-77
2022/07/20 04:13:05;;;;;;;7.70;6.10;;;22.80;60.60;;;;;;4800810;29;20089;-78
2022/07/20 04:15:31;;;;;;;8.20;6.50;;;22.80;60.70;;;;;;4800856;29;20042;-79
2022/07/20 04:17:57;;;;;;;7.25;6.55;;;22.80;60.70;;;;;;4816897;29;20276;-79
2022/07/20 04:20:23;;;;;;;6.60;5.97;;;22.80;60.70;;;;;;4800241;29;20030;-79
2022/07/20 04:22:49;;;;;;;7.72;5.85;;;22.70;60.60;;;;;;4817073;29;20499;-77
2022/07/20 04:25:15;;;;;;;6.20;5.70;;;22.70;60.60;;;;;;4816290;29;20114;-79
2022/07/20 04:27:42;;;;;;;6.13;5.45;;;22.70;60.60;;;;;;4817399;29;20026;-79
2022/07/20 04:30:09;;;;;;;6.55;5.90;;;22.80;60.90;;;;;;4818630;29;20038;-80
2022/07/20 04:32:35;;;;;;;6.28;5.63;;;22.80;60.80;;;;;;4786419;29;20042;-79
2022/07/20 04:35:01;;;;;;;8.00;6.10;;;22.80;60.80;;;;;;4822148;29;20678;-78
2022/07/20 04:37:27;;;;;;;7.05;6.35;;;22.80;60.80;;;;;;4819359;29;20042;-79
2022/07/20 04:39:52;;;;;;;6.35;5.75;;;22.80;60.80;;;;;;4819764;29;20171;-79
2022/07/20 04:42:18;;;;;;;7.32;6.07;;;22.80;60.80;;;;;;4822387;29;20110;-79
2022/07/20 04:44:44;;;;;;;6.60;5.70;;;22.70;60.60;;;;;;4824065;29;20030;-78
2022/07/20 04:47:10;;;;;;;6.85;6.15;;;22.70;60.60;;;;;;4823523;29;20064;-78
2022/07/20 04:49:36;;;;;;;8.15;5.45;;;22.70;60.60;;;;;;4821962;29;20129;-79
2022/07/20 04:52:02;;;;;;;7.97;5.60;;;22.80;60.80;;;;;;4825488;29;20030;-79
2022/07/20 04:54:28;;;;;;;5.95;5.35;;;22.80;60.80;;;;;;4815413;29;20396;-79
2022/07/20 04:56:54;;;;;;;7.18;5.50;;;22.80;60.80;;;;;;4815504;29;20038;-79
2022/07/20 04:59:20;;;;;;;5.47;4.90;;;22.80;60.90;;;;;;4812219;29;20042;-79
2022/07/20 05:01:46;;;;;;;7.20;5.28;;;22.80;60.90;;;;;;4815037;29;20107;-78
2022/07/20 05:04:13;;;;;;;5.70;5.07;;;22.80;60.90;;;;;;4813878;29;20041;-79
2022/07/20 05:06:39;;;;;;;5.93;5.05;;;22.80;60.90;;;;;;4813808;29;20049;-78
2022/07/20 05:09:10;;;;;;;6.50;5.60;;;22.80;60.90;;;;;;4813696;29;20034;-79
2022/07/20 05:11:37;;;;;;;7.80;5.63;;;22.80;60.90;;;;;;4813601;29;20584;-78
2022/07/20 05:14:03;;;;;;;7.53;5.93;;;22.80;60.90;;;;;;4814188;29;20146;-79
2022/07/20 05:16:29;;;;;;;6.00;5.22;;;22.80;60.90;;;;;;4813792;29;20096;-79
2022/07/20 05:18:55;;;;;;;5.00;4.50;;;22.80;60.90;;;;;;4814789;29;20580;-79
2022/07/20 05:21:21;;;;;;;5.68;5.10;;;22.70;60.80;;;;;;4813664;29;20125;-79
2022/07/20 05:23:47;;;;;;;5.85;5.07;;;22.70;60.80;;;;;;4814977;29;20054;-79
2022/07/20 05:26:13;;;;;;;7.05;5.53;;;22.80;61.00;;;;;;4813113;29;20073;-78
2022/07/20 05:28:43;;;;;;;6.00;5.03;;;22.80;61.00;;;;;;4814840;29;20408;-78
2022/07/20 05:31:09;;;;;;;8.20;5.88;;;22.80;61.00;;;;;;4814419;29;20065;-78
2022/07/20 05:33:36;;;;;;;8.65;4.85;;;22.80;61.00;;;;;;4816591;29;20379;-79
2022/07/20 05:36:03;;;;;;;6.85;5.22;;;22.80;61.00;;;;;;4814235;29;20102;-79
2022/07/20 05:38:29;;;;;;;5.63;5.00;;;22.80;61.00;;;;;;4816231;29;20038;-86
2022/07/20 05:40:57;;;;;;;7.00;5.72;;;22.80;61.00;;;;;;4802612;29;20060;-87
2022/07/20 05:43:24;;;;;;;5.35;4.85;;;22.90;61.10;;;;;;4801729;29;20034;-84
2022/07/20 05:45:50;;;;;;;5.57;5.00;;;22.90;61.10;;;;;;4817569;29;20038;-83
2022/07/20 05:48:17;;;;;;;7.03;5.55;;;22.90;61.00;;;;;;4813766;29;20030;-82
2022/07/20 05:50:44;;;;;;;8.68;5.72;;;22.90;61.00;;;;;;4816618;29;20100;-84
2022/07/20 05:53:11;;;;;;;9.02;6.05;;;23.00;61.30;;;;;;4816749;29;20508;-84
2022/07/20 05:55:39;;;;;;;7.03;5.68;;;23.00;61.50;;;;;;4816091;29;20038;-81
2022/07/20 05:58:06;;;;;;;7.80;6.05;;;22.90;61.50;;;;;;4815837;29;20034;-79
2022/07/20 06:00:33;;;;;;;7.47;6.30;;;22.90;61.60;;;;;;4813772;29;20094;-76
2022/07/20 06:03:00;;;;;;;8.75;5.97;;;22.90;61.70;;;;;;4814424;29;20378;-78
2022/07/20 06:05:26;;;;;;;7.72;6.18;;;22.90;61.80;;;;;;4814059;29;20065;-81
2022/07/20 06:08:00;;;;;;;8.35;5.75;;;22.90;61.90;;;;;;4814302;29;20034;-78
2022/07/20 06:10:30;;;;;;;6.60;5.95;;;22.90;62.00;;;;;;4813940;29;20552;-80
2022/07/20 06:12:57;;;;;;;9.07;6.38;;;22.90;61.90;;;;;;4815610;29;20086;-81
2022/07/20 06:15:25;;;;;;;9.13;6.13;;;22.90;61.90;;;;;;4815693;29;20095;-80
2022/07/20 06:17:53;;;;;;;9.77;6.50;;;22.90;61.90;;;;;;4815621;29;20039;-79
2022/07/20 06:20:20;;;;;;;7.28;6.38;;;22.80;61.80;;;;;;4814169;29;20046;-79
2022/07/20 06:22:46;;;;;;;8.40;6.20;;;22.80;61.80;;;;;;4800942;29;20443;-77
2022/07/20 06:25:13;;;;;;;10.38;6.93;;;22.80;61.90;;;;;;4815424;29;20481;-82
2022/07/20 06:27:40;;;;;;;9.40;7.50;;;22.80;62.00;;;;;;4813625;29;20038;-77
2022/07/20 06:30:08;;;;;;;10.32;6.95;;;22.80;62.10;;;;;;4816453;29;20200;-77
2022/07/20 06:32:34;;;;;;;9.93;6.82;;;22.80;62.10;;;;;;4796692;29;20442;-82
2022/07/20 06:35:01;;;;;;;8.35;6.38;;;22.70;62.00;;;;;;4811505;29;20104;-78
2022/07/20 06:37:27;;;;;;;10.73;7.50;;;22.70;62.10;;;;;;4813704;29;20089;-78
2022/07/20 06:39:52;;;;;;;10.00;6.57;;;22.70;62.10;;;;;;4815024;29;20026;-77
2022/07/20 06:42:20;;;;;;;11.25;7.22;;;22.70;62.20;;;;;;4813229;29;20038;-77
2022/07/20 06:44:47;;;;;;;15.88;6.97;;;22.80;62.30;;;;;;4813373;29;20058;-76
2022/07/20 06:47:13;;;;;;;9.23;6.93;;;22.80;62.20;;;;;;4816542;29;20027;-76
2022/07/20 06:49:39;;;;;;;7.63;6.50;;;22.80;62.20;;;;;;4815621;29;20042;-77
2022/07/20 06:52:05;;;;;;;9.30;7.45;;;22.80;62.10;;;;;;4781601;29;20118;-78
2022/07/20 06:54:31;;;;;;;11.95;7.45;;;22.80;62.10;;;;;;4793372;29;20043;-78
2022/07/20 06:56:57;;;;;;;8.88;6.55;;;22.80;62.20;;;;;;4796300;29;20215;-83
2022/07/20 06:59:23;;;;;;;9.38;6.47;;;22.80;62.20;;;;;;4814497;29;20125;-83
2022/07/20 07:01:50;;;;;;;11.38;7.32;;;22.80;62.30;;;;;;4817390;29;20502;-83
2022/07/20 07:04:16;;;;;;;7.63;6.85;;;22.90;62.50;;;;;;4812959;29;20042;-82
2022/07/20 07:06:42;;;;;;;10.25;6.55;;;22.90;62.50;;;;;;4796142;29;20026;-82
2022/07/20 07:09:09;;;;;;;8.60;6.95;;;23.00;62.50;;;;;;4812467;29;20121;-83
2022/07/20 07:11:35;;;;;;;11.07;7.55;;;23.10;62.60;;;;;;4812863;29;20056;-82
2022/07/20 07:14:02;;;;;;;9.27;7.43;;;23.20;62.50;;;;;;4811856;29;20050;-80
2022/07/20 07:16:28;;;;;;;8.93;7.45;;;23.30;62.40;;;;;;4816319;29;20030;-79
2022/07/20 07:18:54;;;;;;;9.38;6.60;;;23.30;62.20;;;;;;4796093;29;20045;-84
2022/07/20 07:21:20;;;;;;;12.02;7.97;;;23.40;62.20;;;;;;4812942;29;20549;-79
2022/07/20 07:23:49;;;;;;;8.88;7.30;;;23.60;62.40;;;;;;4813332;29;20050;-79
2022/07/20 07:26:16;;;;;;;9.65;6.88;;;23.70;62.50;;;;;;4814827;29;20049;-79
2022/07/20 07:28:43;;;;;;;11.43;8.32;;;23.80;62.40;;;;;;4798460;29;20041;-79
2022/07/20 07:31:09;;;;;;;11.93;7.22;;;23.90;62.30;;;;;;4818254;29;20061;-79
2022/07/20 07:33:35;;;;;;;15.35;7.50;;;23.90;62.10;;;;;;4813935;29;20081;-79
2022/07/20 07:36:01;;;;;;;13.82;7.13;;;24.00;62.20;;;;;;4812428;29;20069;-80
2022/07/20 07:38:28;;;;;;;9.65;7.18;;;24.10;62.20;;;;;;4815197;29;20038;-81
2022/07/20 07:40:54;;;;;;;15.00;8.00;;;24.10;62.10;;;;;;4821343;29;20041;-80
2022/07/20 07:43:20;;;;;;;9.55;6.97;;;24.20;62.30;;;;;;4817768;29;20037;-79
2022/07/20 07:45:46;;;;;;;10.20;7.97;;;24.30;62.40;;;;;;4815739;29;20454;-80
2022/07/20 07:48:11;;;;;;;8.15;6.97;;;24.30;62.80;;;;;;4801977;29;20405;-80
2022/07/20 07:50:39;;;;;;;10.05;7.60;;;24.50;62.50;;;;;;4821429;29;20099;-79
2022/07/20 07:53:07;;;;;;;8.32;6.60;;;24.50;62.30;;;;;;4812626;29;20083;-79
2022/07/20 07:55:40;;;;;;;10.63;7.43;;;24.60;62.30;;;;;;4814698;29;20038;-82
2022/07/20 07:58:08;;;;;;;8.98;7.22;;;24.80;62.50;;;;;;4815312;29;20041;-81
2022/07/20 08:00:35;;;;;;;9.95;7.53;;;24.90;62.30;;;;;;4815857;29;20236;-81
2022/07/20 08:03:02;;;;;;;9.13;6.90;;;25.00;62.20;;;;;;4815953;29;20257;-82
2022/07/20 08:05:28;;;;;;;10.63;7.15;;;25.10;62.10;;;;;;4815940;29;20489;-83
2022/07/20 08:07:54;;;;;;;12.57;7.72;;;25.20;61.90;;;;;;4816393;29;20494;-83
2022/07/20 08:10:20;;;;;;;9.57;7.18;;;25.30;61.80;;;;;;4819825;29;20381;-83
2022/07/20 08:12:46;;;;;;;8.70;6.97;;;25.50;61.70;;;;;;4815362;29;20049;-81
2022/07/20 08:15:13;;;;;;;8.35;6.72;;;25.50;61.40;;;;;;4815142;29;20042;-81
2022/07/20 08:17:43;;;;;;;9.40;6.97;;;25.60;61.30;;;;;;4815725;29;20458;-82
2022/07/20 08:20:09;;;;;;;8.63;6.53;;;25.60;61.20;;;;;;4798147;29;20046;-81
2022/07/20 08:22:35;;;;;;;8.35;6.68;;;25.60;61.20;;;;;;4816881;29;20042;-77
2022/07/20 08:25:02;;;;;;;8.73;6.85;;;25.60;61.20;;;;;;4817520;29;20426;-76
2022/07/20 08:27:27;;;;;;;10.00;7.32;;;25.80;61.20;;;;;;4816198;29;20066;-77
2022/07/20 08:29:58;;;;;;;10.52;7.60;;;25.90;61.10;;;;;;4818050;29;20536;-78
2022/07/20 08:32:27;;;;;;;10.68;7.30;;;26.00;60.90;;;;;;4799108;29;20134;-76
2022/07/20 08:34:53;;;;;;;8.38;6.70;;;26.20;60.70;;;;;;4815772;29;20038;-76
2022/07/20 08:37:20;;;;;;;9.73;7.70;;;26.30;60.40;;;;;;4814711;29;20108;-77
2022/07/20 08:39:46;;;;;;;16.05;8.63;;;26.50;60.20;;;;;;4814035;29;20055;-77
2022/07/20 08:42:13;;;;;;;11.55;8.65;;;26.60;59.90;;;;;;4812463;29;20042;-77
2022/07/20 08:44:40;;;;;;;12.35;7.72;;;26.80;59.50;;;;;;4810050;29;20035;-77
2022/07/20 08:47:07;;;;;;;9.23;8.07;;;27.00;59.20;;;;;;4812697;29;20046;-77
2022/07/20 08:49:34;;;;;;;9.73;7.65;;;27.20;58.80;;;;;;4797795;29;20439;-77
2022/07/20 08:52:00;;;;;;;9.45;7.68;;;27.30;58.50;;;;;;4811200;29;20460;-75
2022/07/20 08:54:26;;;;;;;13.27;7.85;;;27.30;58.30;;;;;;4810520;29;20038;-76
2022/07/20 08:56:52;;;;;;;11.40;8.00;;;27.30;58.20;;;;;;4813405;29;20429;-77
2022/07/20 08:59:18;;;;;;;12.27;8.07;;;27.40;58.20;;;;;;4812899;29;20034;-76
2022/07/20 09:02:01;;;;;;;11.48;7.93;;;27.50;58.00;;;;;;4797789;29;20087;-78
2022/07/20 09:04:27;;;;;;;10.32;8.05;;;27.80;57.80;;;;;;4815301;29;20033;-77
2022/07/20 09:06:54;;;;;;;12.63;8.32;;;28.20;57.30;;;;;;4799977;29;20048;-77
2022/07/20 09:09:20;;;;;;;11.40;8.85;;;28.50;56.50;;;;;;4813926;29;20474;-77
2022/07/20 09:11:48;;;;;;;12.93;8.85;;;28.70;56.00;;;;;;4815774;29;20407;-77
2022/07/20 09:14:34;;;;;;;11.45;9.27;;;28.80;55.70;;;;;;4799409;29;20707;-77
2022/07/20 09:17:02;;;;;;;12.75;9.65;;;28.80;55.30;;;;;;4818818;29;20038;-77
2022/07/20 09:19:28;;;;;;;14.02;9.77;;;28.70;55.30;;;;;;4814386;29;20123;-77
2022/07/20 09:21:53;;;;;;;10.32;8.70;;;28.40;55.30;;;;;;4814965;29;20509;-78
2022/07/20 09:24:20;;;;;;;15.27;9.73;;;28.20;55.60;;;;;;4816301;29;20040;-77
2022/07/20 09:27:03;;;;;;;11.95;9.35;;;27.90;55.80;;;;;;4798244;29;20078;-77
2022/07/20 09:29:29;;;;;;;12.55;10.32;;;27.60;56.20;;;;;;4785297;29;20083;-76
2022/07/20 09:32:03;;;;;;;10.02;8.82;;;27.40;56.60;;;;;;4815358;29;20042;-79
2022/07/20 09:34:28;;;;;;;13.05;8.93;;;27.10;57.00;;;;;;4797829;29;20107;-77
2022/07/20 09:36:54;;;;;;;15.38;9.63;;;26.80;57.40;;;;;;4815675;29;20054;-78
2022/07/20 09:39:22;;;;;;;13.80;9.38;;;26.60;57.80;;;;;;4821325;29;20040;-77
2022/07/20 09:41:53;;;;;;;10.88;9.77;;;26.50;58.20;;;;;;4815608;29;20034;-78
2022/07/20 09:44:22;;;;;;;10.70;9.23;;;26.40;58.50;;;;;;4822623;29;20026;-78
2022/07/20 09:46:48;;;;;;;15.32;9.80;;;26.30;58.60;;;;;;4817208;29;20030;-77
2022/07/20 09:49:14;;;;;;;14.52;9.93;;;26.30;58.70;;;;;;4817621;29;20525;-77
2022/07/20 09:51:45;;;;;;;14.27;9.57;;;26.40;58.70;;;;;;4816613;29;20290;-77
2022/07/20 09:54:14;;;;;;;13.30;10.07;;;26.50;58.60;;;;;;4815107;29;20320;-77
2022/07/20 09:56:46;;;;;;;10.52;9.40;;;26.70;58.50;;;;;;4813068;29;20295;-77
2022/07/20 09:59:13;;;;;;;11.30;8.48;;;26.80;58.30;;;;;;4815383;29;20030;-77
2022/07/20 10:01:41;;;;;;;14.07;9.40;;;27.00;58.00;;;;;;4799104;29;20042;-80
2022/07/20 10:04:09;;;;;;;9.77;8.77;;;27.10;57.80;;;;;;4817387;29;20038;-77
2022/07/20 10:06:37;;;;;;;10.50;9.15;;;27.20;57.60;;;;;;4816483;29;20030;-76
2022/07/20 10:09:05;;;;;;;14.82;9.98;;;27.20;57.40;;;;;;4816604;29;20110;-76
2022/07/20 10:11:31;;;;;;;10.95;9.40;;;27.20;57.50;;;;;;4799077;29;20401;-76
2022/07/20 10:14:01;;;;;;;13.85;9.90;;;27.10;57.60;;;;;;4799536;29;20050;-76
2022/07/20 10:16:36;;;;;;;15.77;9.25;;;27.10;57.60;;;;;;4817753;29;20049;-76
2022/07/20 10:19:04;;;;;;;13.05;9.50;;;27.10;57.80;;;;;;4815276;29;20442;-76
2022/07/20 10:21:43;;;;;;;12.10;8.90;;;27.00;57.80;;;;;;4816233;29;20112;-76
2022/07/20 10:24:30;;;;;;;11.57;8.82;;;27.00;58.10;;;;;;4813829;29;20040;-76
2022/07/20 10:27:02;;;;;;;12.63;9.73;;;26.90;58.10;;;;;;4815294;29;20033;-75
2022/07/20 10:29:33;;;;;;;15.98;9.10;;;26.70;58.20;;;;;;4815561;29;20125;-75
2022/07/20 10:32:30;;;;;;;11.02;9.35;;;26.70;58.40;;;;;;4812297;29;20048;-75
2022/07/20 10:34:58;;;;;;;12.32;10.40;;;26.60;58.60;;;;;;4812521;29;20069;-76
2022/07/20 10:37:36;;;;;;;13.02;9.07;;;26.50;58.70;;;;;;4798673;29;20102;-75
2022/07/20 10:40:11;;;;;;;11.50;9.77;;;26.50;58.90;;;;;;4810929;29;20445;-75
2022/07/20 10:42:50;;;;;;;11.60;9.52;;;26.40;59.50;;;;;;4810398;29;20053;-75
2022/07/20 10:45:19;;;;;;;11.18;8.90;;;26.40;59.00;;;;;;4811998;29;20038;-75
2022/07/20 10:47:46;;;;;;;10.90;9.20;;;26.30;59.00;;;;;;4817735;29;20061;-75
2022/07/20 10:50:39;;;;;;;12.07;9.02;;;26.30;59.10;;;;;;4811808;29;20421;-77
2022/07/20 10:53:11;;;;;;;11.00;9.50;;;26.30;59.50;;;;;;4806365;29;20058;-76
2022/07/20 10:55:37;;;;;;;10.95;8.48;;;26.40;59.40;;;;;;4813023;29;20046;-76
2022/07/20 10:58:08;;;;;;;12.80;9.40;;;26.40;59.30;;;;;;4812288;29;20089;-76
2022/07/20 11:00:36;;;;;;;13.18;9.90;;;26.50;59.30;;;;;;4813320;29;20045;-76
2022/07/20 11:03:04;;;;;;;12.93;9.82;;;26.60;59.20;;;;;;4813085;29;20118;-75
2022/07/20 11:05:30;;;;;;;13.80;10.48;;;26.70;59.10;;;;;;4814227;29;20145;-75
2022/07/20 11:08:03;;;;;;;12.35;9.27;;;26.80;59.00;;;;;;4814338;29;20405;-76
2022/07/20 11:10:30;;;;;;;10.48;8.82;;;26.90;58.80;;;;;;4815531;29;20091;-76
2022/07/20 11:13:09;;;;;;;9.70;8.40;;;27.00;58.50;;;;;;4797583;29;20042;-75
2022/07/20 11:15:52;;;;;;;10.60;9.55;;;27.20;58.40;;;;;;4816933;29;20049;-76
2022/07/20 11:18:24;;;;;;;10.18;8.65;;;27.30;58.10;;;;;;4801329;29;20126;-76
2022/07/20 11:20:58;;;;;;;11.65;9.07;;;27.40;57.80;;;;;;4815556;29;20050;-76
2022/07/20 11:23:44;;;;;;;18.33;10.82;;;27.50;57.80;;;;;;4818514;29;20042;-75
2022/07/20 11:26:13;;;;;;;11.48;8.85;;;27.50;57.90;;;;;;4814716;29;20034;-75
2022/07/20 11:28:50;;;;;;;12.65;8.85;;;27.40;57.80;;;;;;4816258;29;20393;-75
2022/07/20 11:31:20;;;;;;;11.30;9.45;;;27.40;58.10;;;;;;4814936;29;20065;-75
2022/07/20 11:33:48;;;;;;;12.93;8.68;;;27.40;58.10;;;;;;4799731;29;20038;-75
2022/07/20 11:36:20;;;;;;;11.70;9.63;;;27.40;58.20;;;;;;4814105;29;20340;-75
2022/07/20 11:38:49;;;;;;;15.60;9.80;;;27.50;58.10;;;;;;4817190;29;20045;-75
2022/07/20 11:41:21;;;;;;;12.40;9.65;;;27.50;58.00;;;;;;4798146;29;20054;-75
2022/07/20 11:43:49;;;;;;;11.80;10.07;;;27.50;57.90;;;;;;4816398;29;20487;-77
2022/07/20 11:46:22;;;;;;;11.90;8.73;;;27.50;57.90;;;;;;4816354;29;20302;-75
2022/07/20 11:48:52;;;;;;;10.30;8.95;;;27.50;57.90;;;;;;4816636;29;20030;-75
2022/07/20 11:51:18;;;;;;;14.20;10.35;;;27.40;57.90;;;;;;4814832;29;20030;-75
2022/07/20 11:53:44;;;;;;;10.25;9.18;;;27.30;58.00;;;;;;4817477;29;20065;-76
2022/07/20 11:56:18;;;;;;;12.70;9.32;;;27.20;58.20;;;;;;4815069;29;20039;-75
2022/07/20 11:58:46;;;;;;;11.70;10.00;;;27.20;58.40;;;;;;4817121;29;20042;-75
2022/07/20 12:01:18;;;;;;;15.70;10.55;;;27.10;58.50;;;;;;4813768;29;20377;-75
2022/07/20 12:03:52;;;;;;;15.05;8.95;;;27.10;58.50;;;;;;4816486;29;20026;-75
2022/07/20 12:06:18;;;;;;;10.23;8.98;;;27.20;58.60;;;;;;4814321;29;20034;-74
2022/07/20 12:09:00;;;;;;;15.55;9.73;;;27.20;58.50;;;;;;4819468;29;20029;-77
2022/07/20 12:11:26;;;;;;;11.75;10.05;;;27.30;58.40;;;;;;4797468;29;20035;-77
2022/07/20 12:13:52;;;;;;;13.43;10.00;;;27.30;58.30;;;;;;4817210;29;20495;-77
2022/07/20 12:16:18;;;;;;;14.45;10.43;;;27.40;58.20;;;;;;4814989;29;20176;-75
2022/07/20 12:18:47;;;;;;;10.07;8.80;;;27.50;58.10;;;;;;4815891;29;20030;-75
2022/07/20 12:21:25;;;;;;;14.43;10.25;;;27.90;58.00;;;;;;4813063;29;20033;-74
2022/07/20 12:23:53;;;;;;;13.52;9.20;;;28.30;57.70;;;;;;4812405;29;20465;-74
2022/07/20 12:26:30;;;;;;;16.42;9.45;;;28.60;57.00;;;;;;4815984;29;20398;-76
2022/07/20 12:29:20;;;;;;;11.57;8.38;;;28.90;56.40;;;;;;4815397;29;20130;-77
2022/07/20 12:32:00;;;;;;;10.50;7.45;;;29.10;56.00;;;;;;4804350;29;20026;-77
2022/07/20 12:34:27;;;;;;;10.63;8.18;;;29.30;55.90;;;;;;4795623;29;20060;-77
2022/07/20 12:36:53;;;;;;;10.73;7.90;;;29.20;55.70;;;;;;4818416;29;20054;-77
2022/07/20 12:39:42;;;;;;;9.30;7.65;;;29.30;55.60;;;;;;4813319;29;20038;-77
2022/07/20 12:42:29;;;;;;;10.60;7.43;;;29.20;55.40;;;;;;4810728;29;20056;-76
2022/07/20 12:45:05;;;;;;;10.05;7.15;;;29.00;55.50;;;;;;4812885;29;20066;-78
2022/07/20 12:47:31;;;;;;;10.68;7.63;;;28.90;55.70;;;;;;4818360;29;20504;-78
2022/07/20 12:49:57;;;;;;;8.57;6.78;;;29.00;55.70;;;;;;4818032;29;20076;-78
2022/07/20 12:52:24;;;;;;;10.48;7.50;;;29.10;55.40;;;;;;4795968;29;20034;-77